createdAt,value
2017-11-28T00:01:12.974Z,87.03
2017-11-28T00:03:42.778Z,86.81
2017-11-28T00:06:12.675Z,86.71
2017-11-28T00:08:41.742Z,86.47
2017-11-28T00:13:45.924Z,86.72
2017-11-28T00:16:14.942Z,86.54
2017-11-28T00:18:47.496Z,86.70
2017-11-28T00:21:19.868Z,86.73
2017-11-28T00:23:49.053Z,88.63
2017-11-28T00:26:19.821Z,88.84
2017-11-28T00:28:49.051Z,87.71
2017-11-28T00:31:19.321Z,86.84
2017-11-28T00:33:48.527Z,87.21
2017-11-28T00:36:18.068Z,86.74
2017-11-28T00:41:24.310Z,86.20
2017-11-28T00:43:54.375Z,85.82
2017-11-28T00:46:24.323Z,86.82
2017-11-28T00:48:53.544Z,86.73
2017-11-28T00:51:23.145Z,87.20
2017-11-28T00:53:52.479Z,87.25
2017-11-28T00:56:21.552Z,88.49
2017-11-28T00:58:51.362Z,87.87
2017-11-28T01:01:21.373Z,87.57
2017-11-28T01:03:51.499Z,86.87
2017-11-28T01:06:20.494Z,86.99
2017-11-28T01:08:51.530Z,86.64
2017-11-28T01:11:20.929Z,86.35
2017-11-28T01:13:50.337Z,86.46
2017-11-28T01:16:20.326Z,86.00
2017-11-28T01:18:50.316Z,86.07
2017-11-28T01:21:19.505Z,86.02
2017-11-28T01:23:48.701Z,85.76
2017-11-28T01:26:18.215Z,85.75
2017-11-28T01:28:48.422Z,86.90
2017-11-28T01:31:18.521Z,86.74
2017-11-28T01:33:48.297Z,86.82
2017-11-28T01:36:17.523Z,87.27
2017-11-28T01:38:46.729Z,86.94
2017-11-28T01:41:16.028Z,86.98
2017-11-28T01:43:45.321Z,86.54
2017-11-28T01:46:14.628Z,87.10
2017-11-28T01:48:43.877Z,86.64
2017-11-28T01:51:13.015Z,86.33
2017-11-28T01:56:18.687Z,86.97
2017-11-28T01:58:47.988Z,88.12
2017-11-28T02:01:18.094Z,87.83
2017-11-28T02:03:47.252Z,87.74
2017-11-28T02:06:16.508Z,88.85
2017-11-28T02:08:46.837Z,89.09
2017-11-28T02:11:16.137Z,89.30
2017-11-28T02:13:45.700Z,89.82
2017-11-28T02:16:14.941Z,88.52
2017-11-28T02:18:45.868Z,88.97
2017-11-28T02:21:16.047Z,89.16
2017-11-28T02:23:45.221Z,88.24
2017-11-28T02:26:15.497Z,87.67
2017-11-28T02:28:46.499Z,88.43
2017-11-28T02:31:15.758Z,87.84
2017-11-28T02:33:45.910Z,87.25
2017-11-28T02:36:16.824Z,88.17
2017-11-28T02:38:46.375Z,87.39
2017-11-28T02:41:17.421Z,87.09
2017-11-28T02:43:48.469Z,86.79
2017-11-28T02:46:18.465Z,86.74
2017-11-28T02:49:05.315Z,86.16
2017-11-28T02:51:39.303Z,87.35
2017-11-28T02:54:08.648Z,87.60
2017-11-28T02:56:37.893Z,86.63
2017-11-28T02:59:08.512Z,86.90
2017-11-28T03:01:48.368Z,86.90
2017-11-28T03:04:17.524Z,86.07
2017-11-28T03:06:47.801Z,87.19
2017-11-28T03:09:19.855Z,86.24
2017-11-28T03:11:50.012Z,86.46
2017-11-28T03:14:25.888Z,86.97
2017-11-28T03:16:56.983Z,86.53
2017-11-28T03:22:27.375Z,86.40
2017-11-28T03:25:04.971Z,87.24
2017-11-28T03:27:33.708Z,87.03
2017-11-28T03:30:02.482Z,86.98
2017-11-28T03:32:32.432Z,88.42
2017-11-28T03:35:01.391Z,88.75
2017-11-28T03:37:33.122Z,88.42
2017-11-28T03:40:04.624Z,88.25
2017-11-28T03:42:34.486Z,89.09
2017-11-28T03:45:26.701Z,88.39
2017-11-28T03:47:57.110Z,88.60
2017-11-28T03:50:26.343Z,89.17
2017-11-28T03:52:55.853Z,89.37
2017-11-28T03:55:26.260Z,88.52
2017-11-28T03:57:55.508Z,88.41
2017-11-28T04:00:25.118Z,87.66
2017-11-28T04:02:55.062Z,88.05
2017-11-28T04:05:24.292Z,87.82
2017-11-28T04:07:55.337Z,87.99
2017-11-28T04:10:24.467Z,87.55
2017-11-28T04:12:54.034Z,87.50
2017-11-28T04:15:26.971Z,87.53
2017-11-28T04:17:57.309Z,88.17
2017-11-28T04:20:28.456Z,88.98
2017-11-28T04:22:57.648Z,89.33
2017-11-28T04:25:26.924Z,88.48
2017-11-28T04:27:56.022Z,87.72
2017-11-28T04:30:25.287Z,89.16
2017-11-28T04:33:02.709Z,89.64
2017-11-28T04:35:31.926Z,88.77
2017-11-28T04:38:02.398Z,88.20
2017-11-28T04:40:32.400Z,89.27
2017-11-28T04:43:01.617Z,89.70
2017-11-28T04:45:32.081Z,89.41
2017-11-28T04:48:01.555Z,89.65
2017-11-28T04:50:31.890Z,89.64
2017-11-28T04:53:01.379Z,89.46
2017-11-28T04:58:06.185Z,90.32
2017-11-28T05:00:35.903Z,89.94
2017-11-28T05:03:05.029Z,89.70
2017-11-28T05:05:35.155Z,89.81
2017-11-28T05:08:04.395Z,90.14
2017-11-28T05:10:36.534Z,90.24
2017-11-28T05:13:06.131Z,90.24
2017-11-28T05:15:36.290Z,90.16
2017-11-28T05:18:08.317Z,89.86
2017-11-28T05:20:38.445Z,89.36
2017-11-28T05:23:07.987Z,89.69
2017-11-28T05:25:39.170Z,89.86
2017-11-28T05:28:09.356Z,88.51
2017-11-28T05:30:38.850Z,88.88
2017-11-28T05:33:08.232Z,89.48
2017-11-28T05:35:38.481Z,89.55
2017-11-28T05:38:08.190Z,89.89
2017-11-28T05:43:13.982Z,88.75
2017-11-28T05:45:51.106Z,88.03
2017-11-28T05:48:20.296Z,88.26
2017-11-28T05:50:49.604Z,87.65
2017-11-28T05:53:21.204Z,87.04
2017-11-28T05:55:50.352Z,87.31
2017-11-28T05:58:20.436Z,87.16
2017-11-28T06:00:50.849Z,88.09
2017-11-28T06:03:20.245Z,87.36
2017-11-28T06:05:49.423Z,86.69
2017-11-28T06:08:20.449Z,86.66
2017-11-28T06:10:50.739Z,86.73
2017-11-28T06:13:19.853Z,85.89
2017-11-28T06:15:50.079Z,85.85
2017-11-28T06:18:20.300Z,84.80
2017-11-28T06:20:49.812Z,83.71
2017-11-28T06:23:19.049Z,84.01
2017-11-28T06:25:49.233Z,84.34
2017-11-28T06:28:18.869Z,83.99
2017-11-28T06:30:48.953Z,83.93
2017-11-28T06:33:18.331Z,84.14
2017-11-28T06:35:48.414Z,83.05
2017-11-28T06:38:17.669Z,82.60
2017-11-28T06:40:47.060Z,82.70
2017-11-28T06:43:17.183Z,82.44
2017-11-28T06:48:22.866Z,82.00
2017-11-28T06:50:52.116Z,82.15
2017-11-28T06:53:21.251Z,81.38
2017-11-28T06:55:50.623Z,81.54
2017-11-28T06:58:19.764Z,82.02
2017-11-28T07:00:49.758Z,81.16
2017-11-28T07:03:19.121Z,81.48
2017-11-28T07:05:48.472Z,80.49
2017-11-28T07:08:17.707Z,80.69
2017-11-28T07:10:48.616Z,82.05
2017-11-28T07:13:17.821Z,81.40
2017-11-28T07:15:47.117Z,81.18
2017-11-28T07:18:16.224Z,82.03
2017-11-28T07:20:45.271Z,82.68
2017-11-28T07:23:16.969Z,81.79
2017-11-28T07:25:47.039Z,82.43
2017-11-28T07:28:16.406Z,81.70
2017-11-28T07:30:45.902Z,81.10
2017-11-28T07:33:15.908Z,81.62
2017-11-28T07:35:45.213Z,81.44
2017-11-28T07:38:16.715Z,81.25
2017-11-28T07:40:46.064Z,82.54
2017-11-28T07:43:16.603Z,82.05
2017-11-28T07:45:49.792Z,82.34
2017-11-28T07:48:20.140Z,82.95
2017-11-28T07:50:49.417Z,80.95
2017-11-28T07:53:18.911Z,80.34
2017-11-28T07:55:48.222Z,79.49
2017-11-28T07:58:18.039Z,78.25
2017-11-28T08:00:48.699Z,79.00
2017-11-28T08:03:18.222Z,78.21
2017-11-28T08:05:47.847Z,77.62
2017-11-28T08:08:18.720Z,77.21
2017-11-28T08:10:49.005Z,76.77
2017-11-28T08:13:18.309Z,77.45
2017-11-28T08:15:50.125Z,77.67
2017-11-28T08:18:21.064Z,78.24
2017-11-28T08:20:50.335Z,78.39
2017-11-28T08:23:19.588Z,78.46
2017-11-28T08:25:49.553Z,78.03
2017-11-28T08:28:19.324Z,77.25
2017-11-28T08:30:48.526Z,78.48
2017-11-28T08:33:18.180Z,77.40
2017-11-28T08:35:48.482Z,77.15
2017-11-28T08:38:18.730Z,76.87
2017-11-28T08:40:48.326Z,78.06
2017-11-28T08:43:20.703Z,76.13
2017-11-28T08:46:03.313Z,76.17
2017-11-28T08:48:32.806Z,75.96
2017-11-28T08:51:03.169Z,76.11
2017-11-28T08:53:34.687Z,76.44
2017-11-28T08:56:04.228Z,74.01
2017-11-28T08:58:33.614Z,74.22
2017-11-28T09:01:05.402Z,73.94
2017-11-28T09:03:34.972Z,71.91
2017-11-28T09:06:04.890Z,71.61
2017-11-28T09:08:36.192Z,71.57
2017-11-28T09:11:06.765Z,70.77
2017-11-28T09:13:37.197Z,72.03
2017-11-28T09:16:07.429Z,71.59
2017-11-28T09:18:36.603Z,70.81
2017-11-28T09:21:10.769Z,70.46
2017-11-28T09:23:42.693Z,69.25
2017-11-28T09:28:51.861Z,71.29
2017-11-28T09:31:25.312Z,70.38
2017-11-28T09:33:56.192Z,70.63
2017-11-28T09:39:01.730Z,70.39
2017-11-28T09:41:32.574Z,70.78
2017-11-28T09:44:02.598Z,70.59
2017-11-28T09:46:43.054Z,71.98
2017-11-28T09:49:13.515Z,70.45
2017-11-28T09:51:43.680Z,71.71
2017-11-28T09:54:13.000Z,71.16
2017-11-28T09:56:43.948Z,70.95
2017-11-28T09:59:13.129Z,70.80
2017-11-28T10:01:42.497Z,71.50
2017-11-28T10:04:11.794Z,71.58
2017-11-28T10:06:42.329Z,71.68
2017-11-28T10:09:11.552Z,71.69
2017-11-28T10:11:40.776Z,71.73
2017-11-28T10:14:09.861Z,71.53
2017-11-28T10:16:39.394Z,72.13
2017-11-28T10:19:09.202Z,72.15
2017-11-28T10:21:38.632Z,72.03
2017-11-28T10:24:08.024Z,71.87
2017-11-28T10:26:37.205Z,71.59
2017-11-28T10:29:07.628Z,71.86
2017-11-28T10:31:37.832Z,71.61
2017-11-28T10:34:06.941Z,73.13
2017-11-28T10:36:36.177Z,71.91
2017-11-28T10:39:06.475Z,72.21
2017-11-28T10:41:36.809Z,72.21
2017-11-28T10:44:06.226Z,73.45
2017-11-28T10:46:36.147Z,72.79
2017-11-28T10:49:06.240Z,72.24
2017-11-28T10:51:35.817Z,73.42
2017-11-28T10:54:05.189Z,73.17
2017-11-28T10:56:34.670Z,73.67
2017-11-28T10:59:04.082Z,73.72
2017-11-28T11:04:10.428Z,73.49
2017-11-28T11:06:40.058Z,73.47
2017-11-28T11:09:11.054Z,74.75
2017-11-28T11:11:40.577Z,73.80
2017-11-28T11:14:10.506Z,73.89
2017-11-28T11:16:40.420Z,74.69
2017-11-28T11:19:10.868Z,74.78
2017-11-28T11:21:41.165Z,74.63
2017-11-28T11:26:44.556Z,74.95
2017-11-28T11:29:13.780Z,75.82
2017-11-28T11:31:43.007Z,74.96
2017-11-28T11:34:13.349Z,74.89
2017-11-28T11:36:42.896Z,74.36
2017-11-28T11:39:12.098Z,73.86
2017-11-28T11:41:42.336Z,73.75
2017-11-28T11:44:11.898Z,73.54
2017-11-28T11:46:43.215Z,73.08
2017-11-28T11:49:12.711Z,73.14
2017-11-28T11:51:41.837Z,72.82
2017-11-28T11:54:11.044Z,73.37
2017-11-28T11:56:40.604Z,72.93
2017-11-28T11:59:09.888Z,73.99
2017-11-28T12:01:39.049Z,74.03
2017-11-28T12:04:09.328Z,72.89
2017-11-28T12:06:38.757Z,72.76
2017-11-28T12:09:11.167Z,72.46
2017-11-28T12:11:41.103Z,72.90
2017-11-28T12:14:10.597Z,73.40
2017-11-28T12:16:42.797Z,72.38
2017-11-28T12:19:12.082Z,73.14
2017-11-28T12:21:41.600Z,73.55
2017-11-28T12:24:12.211Z,73.37
2017-11-28T12:26:41.567Z,74.05
2017-11-28T12:29:11.933Z,74.19
2017-11-28T12:31:42.215Z,74.74
2017-11-28T12:34:11.539Z,74.80
2017-11-28T12:36:40.869Z,75.21
2017-11-28T12:39:10.984Z,76.36
2017-11-28T12:41:41.250Z,75.92
2017-11-28T12:44:10.599Z,76.34
2017-11-28T12:46:41.723Z,76.88
2017-11-28T12:49:10.954Z,76.93
2017-11-28T12:51:41.088Z,78.24
2017-11-28T12:56:45.179Z,77.93
2017-11-28T12:59:14.247Z,78.37
2017-11-28T13:01:43.573Z,78.29
2017-11-28T13:04:15.058Z,77.96
2017-11-28T13:06:44.405Z,77.54
2017-11-28T13:09:13.693Z,76.94
2017-11-28T13:11:46.236Z,77.56
2017-11-28T13:14:15.475Z,76.96
2017-11-28T13:16:44.785Z,76.91
2017-11-28T13:19:16.177Z,76.41
2017-11-28T13:21:45.617Z,76.38
2017-11-28T13:24:15.014Z,76.60
2017-11-28T13:26:44.218Z,76.51
2017-11-28T13:29:16.504Z,76.53
2017-11-28T13:31:45.666Z,76.49
2017-11-28T13:34:14.795Z,77.09
2017-11-28T13:36:44.172Z,77.99
2017-11-28T13:39:14.385Z,77.74
2017-11-28T13:41:45.232Z,77.92
2017-11-28T13:44:14.549Z,77.83
2017-11-28T13:46:46.394Z,77.75
2017-11-28T13:49:15.911Z,77.81
2017-11-28T13:51:45.164Z,77.56
2017-11-28T13:56:49.158Z,77.42
2017-11-28T13:59:18.314Z,78.15
2017-11-28T14:04:23.506Z,77.65
2017-11-28T14:06:53.944Z,78.35
2017-11-28T14:09:29.644Z,77.25
2017-11-28T14:11:58.992Z,77.37
2017-11-28T14:14:28.159Z,77.58
2017-11-28T14:16:57.463Z,77.81
2017-11-28T14:19:26.756Z,78.93
2017-11-28T14:22:12.020Z,78.48
2017-11-28T14:25:01.491Z,79.20
2017-11-28T14:27:37.125Z,79.28
2017-11-28T14:30:07.380Z,78.11
2017-11-28T14:35:22.873Z,79.21
2017-11-28T14:37:55.595Z,78.55
2017-11-28T14:40:25.353Z,77.68
2017-11-28T14:42:58.980Z,77.57
2017-11-28T14:45:30.995Z,77.68
2017-11-28T14:48:00.485Z,78.06
2017-11-28T14:50:35.353Z,77.86
2017-11-28T14:53:07.994Z,78.00
2017-11-28T14:55:54.019Z,78.32
2017-11-28T15:01:32.959Z,79.47
2017-11-28T15:04:09.768Z,78.96
2017-11-28T15:06:44.794Z,79.02
2017-11-28T15:12:00.013Z,78.94
2017-11-28T15:17:35.909Z,78.83
2017-11-28T15:20:09.668Z,79.04
2017-11-28T15:22:39.530Z,79.51
2017-11-28T15:25:29.716Z,79.89
2017-11-28T15:30:34.566Z,79.98
2017-11-28T15:33:04.032Z,79.68
2017-11-28T15:35:33.750Z,80.85
2017-11-28T15:38:03.179Z,80.80
2017-11-28T15:40:33.316Z,80.54
2017-11-28T15:43:03.556Z,80.92
2017-11-28T15:45:33.927Z,80.59
2017-11-28T15:48:04.170Z,80.10
2017-11-28T15:50:33.620Z,80.60
2017-11-28T15:53:02.767Z,80.46
2017-11-28T15:55:32.243Z,80.30
2017-11-28T15:58:03.093Z,79.12
2017-11-28T16:00:32.320Z,79.46
2017-11-28T16:03:01.795Z,80.20
2017-11-28T16:05:31.787Z,79.18
2017-11-28T16:08:02.828Z,79.74
2017-11-28T16:10:32.128Z,79.36
2017-11-28T16:13:02.553Z,79.41
2017-11-28T16:15:32.406Z,79.21
2017-11-28T16:18:02.416Z,78.88
2017-11-28T16:20:31.586Z,78.75
2017-11-28T16:23:01.079Z,79.25
2017-11-28T16:25:30.297Z,79.12
2017-11-28T16:28:01.418Z,79.48
2017-11-28T16:30:30.718Z,79.39
2017-11-28T16:33:00.385Z,79.49
2017-11-28T16:35:29.897Z,78.94
2017-11-28T16:37:59.396Z,78.95
2017-11-28T16:40:30.273Z,79.44
2017-11-28T16:42:59.611Z,78.86
2017-11-28T16:45:29.885Z,79.54
2017-11-28T16:47:59.643Z,79.53
2017-11-28T16:50:28.884Z,79.43
2017-11-28T16:52:58.176Z,79.41
2017-11-28T16:55:28.557Z,79.90
2017-11-28T16:57:57.895Z,80.67
2017-11-28T17:00:27.730Z,81.15
2017-11-28T17:02:57.278Z,81.72
2017-11-28T17:05:27.292Z,81.49
2017-11-28T17:07:56.551Z,80.85
2017-11-28T17:10:26.563Z,81.68
2017-11-28T17:12:56.591Z,81.99
2017-11-28T17:15:26.743Z,81.37
2017-11-28T17:17:58.766Z,81.32
2017-11-28T17:20:28.941Z,81.17
2017-11-28T17:22:58.415Z,81.08
2017-11-28T17:25:29.893Z,80.90
2017-11-28T17:28:00.120Z,80.58
2017-11-28T17:30:29.672Z,80.33
2017-11-28T17:33:00.777Z,80.47
2017-11-28T17:35:30.115Z,80.34
2017-11-28T17:37:59.410Z,80.39
2017-11-28T17:40:28.805Z,80.28
2017-11-28T17:42:58.193Z,79.89
2017-11-28T17:45:27.617Z,80.05
2017-11-28T17:47:59.035Z,80.04
2017-11-28T17:50:34.591Z,80.02
2017-11-28T17:53:04.819Z,79.86
2017-11-28T17:55:34.598Z,79.91
2017-11-28T17:58:04.493Z,79.67
2017-11-28T18:00:34.324Z,79.67
2017-11-28T18:03:04.112Z,79.75
2017-11-28T18:05:33.504Z,79.40
2017-11-28T18:08:02.927Z,79.53
2017-11-28T18:10:33.783Z,79.64
2017-11-28T18:13:03.683Z,79.59
2017-11-28T18:15:33.091Z,79.97
2017-11-28T18:18:02.630Z,80.14
2017-11-28T18:20:31.918Z,79.65
2017-11-28T18:23:02.036Z,79.64
2017-11-28T18:25:31.435Z,79.65
2017-11-28T18:28:00.734Z,79.62
2017-11-28T18:30:31.006Z,80.51
2017-11-28T18:33:00.053Z,79.59
2017-11-28T18:35:29.377Z,79.39
2017-11-28T18:37:58.807Z,79.44
2017-11-28T18:40:29.119Z,79.56
2017-11-28T18:43:02.185Z,79.66
2017-11-28T18:45:31.656Z,79.43
2017-11-28T18:48:01.624Z,79.29
2017-11-28T18:50:32.040Z,79.44
2017-11-28T18:53:02.599Z,79.40
2017-11-28T18:55:32.837Z,79.19
2017-11-28T18:58:03.192Z,79.17
2017-11-28T19:00:34.995Z,79.45
2017-11-28T19:03:04.446Z,79.46
2017-11-28T19:05:33.670Z,79.45
2017-11-28T19:08:03.423Z,79.43
2017-11-28T19:10:32.784Z,79.50
2017-11-28T19:13:02.143Z,79.69
2017-11-28T19:15:33.644Z,79.43
2017-11-28T19:18:03.335Z,79.35
2017-11-28T19:20:32.737Z,79.67
2017-11-28T19:23:03.161Z,79.73
2017-11-28T19:25:32.709Z,79.50
2017-11-28T19:28:02.839Z,79.67
2017-11-28T19:30:32.970Z,79.71
2017-11-28T19:33:03.199Z,79.80
2017-11-28T19:35:32.726Z,79.84
2017-11-28T19:38:03.055Z,79.55
2017-11-28T19:40:32.434Z,79.77
2017-11-28T19:43:02.101Z,79.77
2017-11-28T19:45:31.668Z,79.80
2017-11-28T19:48:01.127Z,79.68
2017-11-28T19:50:31.054Z,79.51
2017-11-28T19:55:36.671Z,79.85
2017-11-28T19:58:06.175Z,79.19
2017-11-28T20:00:35.879Z,79.68
2017-11-28T20:03:06.738Z,79.46
2017-11-28T20:05:38.666Z,79.55
2017-11-28T20:08:09.036Z,79.89
2017-11-28T20:10:39.264Z,79.26
2017-11-28T20:13:09.565Z,79.12
2017-11-28T20:15:38.839Z,79.10
2017-11-28T20:18:08.106Z,79.25
2017-11-28T20:20:38.746Z,79.92
2017-11-28T20:23:08.269Z,79.90
2017-11-28T20:25:37.594Z,79.53
2017-11-28T20:28:09.802Z,79.39
2017-11-28T20:30:40.020Z,79.57
2017-11-28T20:33:11.041Z,80.06
2017-11-28T20:35:40.346Z,79.67
2017-11-28T20:38:09.653Z,80.08
2017-11-28T20:40:39.018Z,80.09
2017-11-28T20:43:10.100Z,79.82
2017-11-28T20:45:40.161Z,79.59
2017-11-28T20:48:11.574Z,79.96
2017-11-28T20:50:41.909Z,81.34
2017-11-28T20:53:11.350Z,80.58
2017-11-28T20:55:40.732Z,80.50
2017-11-28T20:58:10.071Z,80.19
2017-11-28T21:00:39.383Z,80.61
2017-11-28T21:03:08.804Z,80.73
2017-11-28T21:05:38.308Z,81.51
2017-11-28T21:08:07.521Z,81.56
2017-11-28T21:10:37.384Z,81.65
2017-11-28T21:13:06.677Z,81.49
2017-11-28T21:15:36.669Z,81.36
2017-11-28T21:18:06.298Z,81.85
2017-11-28T21:20:35.766Z,81.78
2017-11-28T21:23:05.886Z,82.08
2017-11-28T21:25:35.173Z,81.85
2017-11-28T21:30:38.788Z,82.58
2017-11-28T21:33:07.920Z,82.58
2017-11-28T21:35:37.248Z,82.81
2017-11-28T21:38:07.464Z,82.55
2017-11-28T21:40:41.581Z,82.59
2017-11-28T21:43:11.444Z,82.50
2017-11-28T21:45:40.840Z,82.45
2017-11-28T21:48:11.175Z,82.10
2017-11-28T21:50:40.729Z,82.18
2017-11-28T21:53:09.877Z,81.69
2017-11-28T21:55:39.585Z,81.61
2017-11-28T21:58:08.870Z,81.73
2017-11-28T22:00:38.355Z,81.88
2017-11-28T22:03:08.365Z,82.04
2017-11-28T22:05:37.863Z,82.11
2017-11-28T22:08:07.301Z,82.08
2017-11-28T22:10:38.005Z,81.91
2017-11-28T22:13:07.240Z,81.93
2017-11-28T22:15:36.726Z,80.51
2017-11-28T22:18:06.020Z,81.61
2017-11-28T22:20:35.453Z,82.00
2017-11-28T22:23:05.559Z,80.94
2017-11-28T22:25:35.515Z,80.46
2017-11-28T22:28:05.156Z,80.40
2017-11-28T22:30:34.257Z,80.05
2017-11-28T22:35:38.380Z,80.01
2017-11-28T22:38:08.705Z,80.74
2017-11-28T22:40:38.897Z,81.10
2017-11-28T22:43:08.222Z,81.25
2017-11-28T22:45:37.581Z,81.39
2017-11-28T22:48:06.878Z,81.72
2017-11-28T22:50:36.944Z,82.19
2017-11-28T22:53:06.147Z,82.71
2017-11-28T22:55:36.319Z,82.58
2017-11-28T22:58:05.499Z,82.47
2017-11-28T23:00:34.559Z,82.55
2017-11-28T23:03:04.794Z,82.84
2017-11-28T23:05:34.674Z,83.20
2017-11-28T23:08:03.991Z,83.20
2017-11-28T23:10:35.664Z,83.25
2017-11-28T23:13:04.730Z,83.29
2017-11-28T23:15:33.896Z,83.58
2017-11-28T23:18:05.075Z,81.97
2017-11-28T23:20:34.182Z,82.34
2017-11-28T23:23:03.234Z,81.69
2017-11-28T23:25:32.741Z,81.74
2017-11-28T23:28:01.884Z,81.74
2017-11-28T23:30:30.967Z,81.33
2017-11-28T23:33:03.142Z,80.76
2017-11-28T23:35:32.236Z,80.96
2017-11-28T23:38:01.389Z,80.60
2017-11-28T23:40:30.685Z,81.74
2017-11-28T23:42:59.769Z,82.62
2017-11-28T23:45:29.313Z,82.78
2017-11-28T23:47:58.583Z,82.90
2017-11-28T23:50:27.780Z,82.91
2017-11-28T23:52:56.908Z,83.07
2017-11-28T23:55:31.557Z,82.92
2017-11-28T23:58:00.765Z,82.54
